sensor_id;sensor_type;location;lat;lon;timestamp;temperature;humidity
11320;DHT22;5715;48.234;14.320;2024-03-07T00:02:17;6.30;99.90
11320;DHT22;5715;48.234;14.320;2024-03-07T00:05:05;6.30;99.90
11320;DHT22;5715;48.234;14.320;2024-03-07T00:07:54;6.20;99.90
11320;DHT22;5715;48.234;14.320;2024-03-07T00:10:41;6.10;99.90
11320;DHT22;5715;48.234;14.320;2024-03-07T00:13:31;6.10;99.90
11320;DHT22;5715;48.234;14.320;2024-03-07T00:16:19;6.00;99.90
11320;DHT22;5715;48.234;14.320;2024-03-07T00:19:06;6.00;99.90
11320;DHT22;5715;48.234;14.320;2024-03-07T00:21:54;5.90;99.90
11320;DHT22;5715;48.234;14.320;2024-03-07T00:24:42;5.90;99.90
11320;DHT22;5715;48.234;14.320;2024-03-07T00:27:30;5.90;99.90
11320;DHT22;5715;48.234;14.320;2024-03-07T00:30:19;5.90;99.90
11320;DHT22;5715;48.234;14.320;2024-03-07T00:33:07;5.80;99.90
11320;DHT22;5715;48.234;14.320;2024-03-07T00:35:55;5.80;99.90
11320;DHT22;5715;48.234;14.320;2024-03-07T00:38:43;5.90;99.90
11320;DHT22;5715;48.234;14.320;2024-03-07T00:41:31;5.90;99.90
11320;DHT22;5715;48.234;14.320;2024-03-07T00:44:19;5.80;99.90
11320;DHT22;5715;48.234;14.320;2024-03-07T00:47:06;5.80;99.90
11320;DHT22;5715;48.234;14.320;2024-03-07T00:49:55;5.60;99.90
11320;DHT22;5715;48.234;14.320;2024-03-07T00:52:42;5.50;99.90
11320;DHT22;5715;48.234;14.320;2024-03-07T00:55:30;5.50;99.90
11320;DHT22;5715;48.234;14.320;2024-03-07T00:58:18;5.40;99.90
11320;DHT22;5715;48.234;14.320;2024-03-07T01:01:05;5.30;99.90
11320;DHT22;5715;48.234;14.320;2024-03-07T01:03:53;5.20;99.90
11320;DHT22;5715;48.234;14.320;2024-03-07T01:06:41;5.20;99.90
11320;DHT22;5715;48.234;14.320;2024-03-07T01:09:29;5.10;99.90
11320;DHT22;5715;48.234;14.320;2024-03-07T01:12:16;4.90;99.90
11320;DHT22;5715;48.234;14.320;2024-03-07T01:15:04;4.70;99.90
11320;DHT22;5715;48.234;14.320;2024-03-07T01:17:53;4.70;99.90
11320;DHT22;5715;48.234;14.320;2024-03-07T01:20:40;4.60;99.90
11320;DHT22;5715;48.234;14.320;2024-03-07T01:23:29;4.70;99.90
11320;DHT22;5715;48.234;14.320;2024-03-07T01:26:18;4.60;99.90
11320;DHT22;5715;48.234;14.320;2024-03-07T01:29:05;4.70;99.90
11320;DHT22;5715;48.234;14.320;2024-03-07T01:31:54;4.60;99.90
11320;DHT22;5715;48.234;14.320;2024-03-07T01:34:42;4.60;99.90
11320;DHT22;5715;48.234;14.320;2024-03-07T01:37:30;4.50;99.90
11320;DHT22;5715;48.234;14.320;2024-03-07T01:40:18;4.50;99.90
11320;DHT22;5715;48.234;14.320;2024-03-07T01:43:07;4.50;99.90
11320;DHT22;5715;48.234;14.320;2024-03-07T01:45:55;4.60;99.90
11320;DHT22;5715;48.234;14.320;2024-03-07T01:48:46;4.70;99.90
11320;DHT22;5715;48.234;14.320;2024-03-07T01:51:36;4.70;99.90
11320;DHT22;5715;48.234;14.320;2024-03-07T01:54:26;4.70;99.90
11320;DHT22;5715;48.234;14.320;2024-03-07T01:57:17;4.70;99.90
11320;DHT22;5715;48.234;14.320;2024-03-07T02:00:06;4.80;99.90
11320;DHT22;5715;48.234;14.320;2024-03-07T02:02:54;4.90;99.90
11320;DHT22;5715;48.234;14.320;2024-03-07T02:05:42;5.00;99.90
11320;DHT22;5715;48.234;14.320;2024-03-07T02:08:32;5.00;99.90
11320;DHT22;5715;48.234;14.320;2024-03-07T02:11:19;5.00;99.90
11320;DHT22;5715;48.234;14.320;2024-03-07T02:14:08;5.00;99.90
11320;DHT22;5715;48.234;14.320;2024-03-07T02:16:56;5.00;99.90
11320;DHT22;5715;48.234;14.320;2024-03-07T02:19:43;4.80;99.90
11320;DHT22;5715;48.234;14.320;2024-03-07T02:22:31;4.70;99.90
11320;DHT22;5715;48.234;14.320;2024-03-07T02:25:19;4.60;99.90
11320;DHT22;5715;48.234;14.320;2024-03-07T02:28:07;4.60;99.90
11320;DHT22;5715;48.234;14.320;2024-03-07T02:30:54;4.60;99.90
11320;DHT22;5715;48.234;14.320;2024-03-07T02:33:42;4.60;99.90
11320;DHT22;5715;48.234;14.320;2024-03-07T02:36:30;4.60;99.90
11320;DHT22;5715;48.234;14.320;2024-03-07T02:39:18;4.60;99.90
11320;DHT22;5715;48.234;14.320;2024-03-07T02:42:06;4.50;99.90
11320;DHT22;5715;48.234;14.320;2024-03-07T02:44:54;4.50;99.90
11320;DHT22;5715;48.234;14.320;2024-03-07T02:47:41;4.50;99.90
11320;DHT22;5715;48.234;14.320;2024-03-07T02:50:31;4.40;99.90
11320;DHT22;5715;48.234;14.320;2024-03-07T02:53:19;4.40;99.90
11320;DHT22;5715;48.234;14.320;2024-03-07T02:56:07;4.40;99.90
11320;DHT22;5715;48.234;14.320;2024-03-07T02:58:55;4.40;99.90
11320;DHT22;5715;48.234;14.320;2024-03-07T03:01:43;4.40;99.90
11320;DHT22;5715;48.234;14.320;2024-03-07T03:04:30;4.40;99.90
11320;DHT22;5715;48.234;14.320;2024-03-07T03:07:18;4.30;99.90
11320;DHT22;5715;48.234;14.320;2024-03-07T03:10:07;4.30;99.90
11320;DHT22;5715;48.234;14.320;2024-03-07T03:12:57;4.30;99.90
11320;DHT22;5715;48.234;14.320;2024-03-07T03:15:47;4.40;99.90
11320;DHT22;5715;48.234;14.320;2024-03-07T03:18:35;4.40;99.90
11320;DHT22;5715;48.234;14.320;2024-03-07T03:21:23;4.40;99.90
11320;DHT22;5715;48.234;14.320;2024-03-07T03:24:11;4.40;99.90
11320;DHT22;5715;48.234;14.320;2024-03-07T03:26:59;4.40;99.90
11320;DHT22;5715;48.234;14.320;2024-03-07T03:29:46;4.40;99.90
11320;DHT22;5715;48.234;14.320;2024-03-07T03:32:35;4.40;99.90
11320;DHT22;5715;48.234;14.320;2024-03-07T03:35:24;4.50;99.90
11320;DHT22;5715;48.234;14.320;2024-03-07T03:38:12;4.50;99.90
11320;DHT22;5715;48.234;14.320;2024-03-07T03:41:00;4.50;99.90
11320;DHT22;5715;48.234;14.320;2024-03-07T03:43:48;4.50;99.90
11320;DHT22;5715;48.234;14.320;2024-03-07T03:46:35;4.50;99.90
11320;DHT22;5715;48.234;14.320;2024-03-07T03:49:24;4.50;99.90
11320;DHT22;5715;48.234;14.320;2024-03-07T03:52:11;4.60;99.90
11320;DHT22;5715;48.234;14.320;2024-03-07T03:54:59;4.70;99.90
11320;DHT22;5715;48.234;14.320;2024-03-07T03:57:47;4.70;99.90
11320;DHT22;5715;48.234;14.320;2024-03-07T04:00:36;4.80;99.90
11320;DHT22;5715;48.234;14.320;2024-03-07T04:03:25;4.80;99.90
11320;DHT22;5715;48.234;14.320;2024-03-07T04:06:14;4.90;99.90
11320;DHT22;5715;48.234;14.320;2024-03-07T04:09:02;4.90;99.90
11320;DHT22;5715;48.234;14.320;2024-03-07T04:11:51;5.00;99.90
11320;DHT22;5715;48.234;14.320;2024-03-07T04:14:45;5.00;99.90
11320;DHT22;5715;48.234;14.320;2024-03-07T04:17:37;4.90;99.90
11320;DHT22;5715;48.234;14.320;2024-03-07T04:20:25;4.90;99.90
11320;DHT22;5715;48.234;14.320;2024-03-07T04:23:13;4.80;99.90
11320;DHT22;5715;48.234;14.320;2024-03-07T04:26:01;4.80;99.90
11320;DHT22;5715;48.234;14.320;2024-03-07T04:28:50;4.80;99.90
11320;DHT22;5715;48.234;14.320;2024-03-07T04:31:39;4.80;99.90
11320;DHT22;5715;48.234;14.320;2024-03-07T04:34:30;4.70;99.90
11320;DHT22;5715;48.234;14.320;2024-03-07T04:37:22;4.70;99.90
11320;DHT22;5715;48.234;14.320;2024-03-07T04:40:11;4.70;99.90
11320;DHT22;5715;48.234;14.320;2024-03-07T04:43:06;4.60;99.90
11320;DHT22;5715;48.234;14.320;2024-03-07T04:45:55;4.70;99.90
11320;DHT22;5715;48.234;14.320;2024-03-07T04:48:42;4.60;99.90
11320;DHT22;5715;48.234;14.320;2024-03-07T04:51:35;4.60;99.90
11320;DHT22;5715;48.234;14.320;2024-03-07T04:54:29;4.50;99.90
11320;DHT22;5715;48.234;14.320;2024-03-07T04:57:19;4.50;99.90
11320;DHT22;5715;48.234;14.320;2024-03-07T05:00:07;4.40;99.90
11320;DHT22;5715;48.234;14.320;2024-03-07T05:03:01;4.40;99.90
11320;DHT22;5715;48.234;14.320;2024-03-07T05:05:48;4.30;99.90
11320;DHT22;5715;48.234;14.320;2024-03-07T05:08:36;4.20;99.90
11320;DHT22;5715;48.234;14.320;2024-03-07T05:11:24;4.20;99.90
11320;DHT22;5715;48.234;14.320;2024-03-07T05:14:11;4.20;99.90
11320;DHT22;5715;48.234;14.320;2024-03-07T05:16:59;4.20;99.90
11320;DHT22;5715;48.234;14.320;2024-03-07T05:19:53;4.20;99.90
11320;DHT22;5715;48.234;14.320;2024-03-07T05:22:41;4.20;99.90
11320;DHT22;5715;48.234;14.320;2024-03-07T05:25:35;4.20;99.90
11320;DHT22;5715;48.234;14.320;2024-03-07T05:28:22;4.10;99.90
11320;DHT22;5715;48.234;14.320;2024-03-07T05:31:10;4.10;99.90
11320;DHT22;5715;48.234;14.320;2024-03-07T05:34:05;4.10;99.90
11320;DHT22;5715;48.234;14.320;2024-03-07T05:36:56;4.10;99.90
11320;DHT22;5715;48.234;14.320;2024-03-07T05:39:44;4.10;99.90
11320;DHT22;5715;48.234;14.320;2024-03-07T05:42:32;4.10;99.90
11320;DHT22;5715;48.234;14.320;2024-03-07T05:45:19;4.00;99.90
11320;DHT22;5715;48.234;14.320;2024-03-07T05:48:14;4.00;99.90
11320;DHT22;5715;48.234;14.320;2024-03-07T05:51:06;4.00;99.90
11320;DHT22;5715;48.234;14.320;2024-03-07T05:53:54;4.00;99.90
11320;DHT22;5715;48.234;14.320;2024-03-07T05:56:42;4.10;99.90
11320;DHT22;5715;48.234;14.320;2024-03-07T05:59:29;4.10;99.90
11320;DHT22;5715;48.234;14.320;2024-03-07T06:02:20;4.20;99.90
11320;DHT22;5715;48.234;14.320;2024-03-07T06:05:09;4.20;99.90
11320;DHT22;5715;48.234;14.320;2024-03-07T06:08:04;4.30;99.90
11320;DHT22;5715;48.234;14.320;2024-03-07T06:10:54;4.30;99.90
11320;DHT22;5715;48.234;14.320;2024-03-07T06:13:42;4.20;99.90
11320;DHT22;5715;48.234;14.320;2024-03-07T06:16:35;4.30;99.90
11320;DHT22;5715;48.234;14.320;2024-03-07T06:19:25;4.30;99.90
11320;DHT22;5715;48.234;14.320;2024-03-07T06:22:13;4.30;99.90
11320;DHT22;5715;48.234;14.320;2024-03-07T06:25:01;4.30;99.90
11320;DHT22;5715;48.234;14.320;2024-03-07T06:27:54;4.30;99.90
11320;DHT22;5715;48.234;14.320;2024-03-07T06:30:44;4.30;99.90
11320;DHT22;5715;48.234;14.320;2024-03-07T06:33:34;4.30;99.90
11320;DHT22;5715;48.234;14.320;2024-03-07T06:36:22;4.30;99.90
11320;DHT22;5715;48.234;14.320;2024-03-07T06:39:10;4.40;99.90
11320;DHT22;5715;48.234;14.320;2024-03-07T06:41:58;4.50;99.90
11320;DHT22;5715;48.234;14.320;2024-03-07T06:44:46;4.50;99.90
11320;DHT22;5715;48.234;14.320;2024-03-07T06:47:34;4.60;99.90
11320;DHT22;5715;48.234;14.320;2024-03-07T06:50:21;4.70;99.90
11320;DHT22;5715;48.234;14.320;2024-03-07T06:53:22;4.70;99.90
11320;DHT22;5715;48.234;14.320;2024-03-07T06:56:14;4.80;99.90
11320;DHT22;5715;48.234;14.320;2024-03-07T06:59:03;4.80;99.90
11320;DHT22;5715;48.234;14.320;2024-03-07T07:01:52;4.90;99.90
11320;DHT22;5715;48.234;14.320;2024-03-07T07:04:41;4.90;99.90
11320;DHT22;5715;48.234;14.320;2024-03-07T07:07:29;5.00;99.90
11320;DHT22;5715;48.234;14.320;2024-03-07T07:10:16;5.00;99.90
11320;DHT22;5715;48.234;14.320;2024-03-07T07:13:11;5.10;99.90
11320;DHT22;5715;48.234;14.320;2024-03-07T07:16:00;5.10;99.90
11320;DHT22;5715;48.234;14.320;2024-03-07T07:18:49;5.10;99.90
11320;DHT22;5715;48.234;14.320;2024-03-07T07:21:37;5.20;99.90
11320;DHT22;5715;48.234;14.320;2024-03-07T07:24:24;5.20;99.90
11320;DHT22;5715;48.234;14.320;2024-03-07T07:27:12;5.20;99.90
11320;DHT22;5715;48.234;14.320;2024-03-07T07:30:00;5.30;99.90
11320;DHT22;5715;48.234;14.320;2024-03-07T07:32:49;5.30;99.90
11320;DHT22;5715;48.234;14.320;2024-03-07T07:35:37;5.40;99.90
11320;DHT22;5715;48.234;14.320;2024-03-07T07:38:26;5.40;99.90
11320;DHT22;5715;48.234;14.320;2024-03-07T07:41:14;5.50;99.90
11320;DHT22;5715;48.234;14.320;2024-03-07T07:44:02;5.60;99.90
11320;DHT22;5715;48.234;14.320;2024-03-07T07:46:50;5.70;99.90
11320;DHT22;5715;48.234;14.320;2024-03-07T07:49:38;5.90;99.90
11320;DHT22;5715;48.234;14.320;2024-03-07T07:52:26;5.90;99.90
11320;DHT22;5715;48.234;14.320;2024-03-07T07:55:14;6.00;99.90
11320;DHT22;5715;48.234;14.320;2024-03-07T07:58:02;6.10;99.90
11320;DHT22;5715;48.234;14.320;2024-03-07T08:00:51;6.20;99.90
11320;DHT22;5715;48.234;14.320;2024-03-07T08:03:39;6.30;99.90
11320;DHT22;5715;48.234;14.320;2024-03-07T08:06:28;6.40;99.90
11320;DHT22;5715;48.234;14.320;2024-03-07T08:09:17;6.30;99.90
11320;DHT22;5715;48.234;14.320;2024-03-07T08:12:05;6.40;99.90
11320;DHT22;5715;48.234;14.320;2024-03-07T08:14:54;6.50;99.90
11320;DHT22;5715;48.234;14.320;2024-03-07T08:17:46;6.50;99.90
11320;DHT22;5715;48.234;14.320;2024-03-07T08:20:35;6.50;99.90
11320;DHT22;5715;48.234;14.320;2024-03-07T08:23:23;6.70;99.90
11320;DHT22;5715;48.234;14.320;2024-03-07T08:26:13;6.70;99.90
11320;DHT22;5715;48.234;14.320;2024-03-07T08:29:03;6.80;99.90
11320;DHT22;5715;48.234;14.320;2024-03-07T08:31:52;6.80;99.90
11320;DHT22;5715;48.234;14.320;2024-03-07T08:34:40;6.90;99.90
11320;DHT22;5715;48.234;14.320;2024-03-07T08:37:27;6.80;99.90
11320;DHT22;5715;48.234;14.320;2024-03-07T08:40:15;6.80;99.90
11320;DHT22;5715;48.234;14.320;2024-03-07T08:43:15;6.90;99.90
11320;DHT22;5715;48.234;14.320;2024-03-07T08:46:03;6.90;99.90
11320;DHT22;5715;48.234;14.320;2024-03-07T08:48:50;7.10;99.90
11320;DHT22;5715;48.234;14.320;2024-03-07T08:51:39;7.10;99.90
11320;DHT22;5715;48.234;14.320;2024-03-07T08:54:27;7.20;99.90
11320;DHT22;5715;48.234;14.320;2024-03-07T08:57:15;7.30;99.90
11320;DHT22;5715;48.234;14.320;2024-03-07T09:00:06;7.40;99.90
11320;DHT22;5715;48.234;14.320;2024-03-07T09:02:59;7.50;99.90
11320;DHT22;5715;48.234;14.320;2024-03-07T09:05:51;7.40;99.90
11320;DHT22;5715;48.234;14.320;2024-03-07T09:08:39;7.50;99.90
11320;DHT22;5715;48.234;14.320;2024-03-07T09:11:27;7.40;99.90
11320;DHT22;5715;48.234;14.320;2024-03-07T09:14:16;7.40;99.90
11320;DHT22;5715;48.234;14.320;2024-03-07T09:17:04;7.40;99.90
11320;DHT22;5715;48.234;14.320;2024-03-07T09:19:52;7.50;99.90
11320;DHT22;5715;48.234;14.320;2024-03-07T09:22:43;7.70;99.90
11320;DHT22;5715;48.234;14.320;2024-03-07T09:25:31;7.60;99.90
11320;DHT22;5715;48.234;14.320;2024-03-07T09:28:23;7.60;99.90
11320;DHT22;5715;48.234;14.320;2024-03-07T09:31:11;7.70;99.90
11320;DHT22;5715;48.234;14.320;2024-03-07T09:34:01;7.60;99.90
11320;DHT22;5715;48.234;14.320;2024-03-07T09:36:50;7.60;99.90
11320;DHT22;5715;48.234;14.320;2024-03-07T09:39:38;7.50;99.90
11320;DHT22;5715;48.234;14.320;2024-03-07T09:42:26;7.50;99.90
11320;DHT22;5715;48.234;14.320;2024-03-07T09:45:17;7.60;99.90
11320;DHT22;5715;48.234;14.320;2024-03-07T09:48:09;7.50;99.90
11320;DHT22;5715;48.234;14.320;2024-03-07T09:50:58;7.50;99.90
11320;DHT22;5715;48.234;14.320;2024-03-07T09:53:49;7.40;99.90
11320;DHT22;5715;48.234;14.320;2024-03-07T09:56:40;7.30;99.90
11320;DHT22;5715;48.234;14.320;2024-03-07T09:59:32;7.40;99.90
11320;DHT22;5715;48.234;14.320;2024-03-07T10:02:24;7.30;99.90
11320;DHT22;5715;48.234;14.320;2024-03-07T10:05:14;7.20;99.90
11320;DHT22;5715;48.234;14.320;2024-03-07T10:08:04;7.10;99.90
11320;DHT22;5715;48.234;14.320;2024-03-07T10:10:52;7.30;99.90
11320;DHT22;5715;48.234;14.320;2024-03-07T10:13:43;7.30;99.90
11320;DHT22;5715;48.234;14.320;2024-03-07T10:16:34;7.40;99.90
11320;DHT22;5715;48.234;14.320;2024-03-07T10:19:22;7.50;99.90
11320;DHT22;5715;48.234;14.320;2024-03-07T10:22:09;7.70;99.90
11320;DHT22;5715;48.234;14.320;2024-03-07T10:24:57;7.80;99.90
11320;DHT22;5715;48.234;14.320;2024-03-07T10:27:46;8.10;99.90
11320;DHT22;5715;48.234;14.320;2024-03-07T10:30:43;8.40;99.90
11320;DHT22;5715;48.234;14.320;2024-03-07T10:33:39;8.50;99.90
11320;DHT22;5715;48.234;14.320;2024-03-07T10:36:30;8.50;99.90
11320;DHT22;5715;48.234;14.320;2024-03-07T10:39:18;8.50;99.90
11320;DHT22;5715;48.234;14.320;2024-03-07T10:42:13;8.50;99.90
11320;DHT22;5715;48.234;14.320;2024-03-07T10:45:05;8.50;99.90
11320;DHT22;5715;48.234;14.320;2024-03-07T10:47:58;8.40;99.90
11320;DHT22;5715;48.234;14.320;2024-03-07T10:51:18;8.30;99.90
11320;DHT22;5715;48.234;14.320;2024-03-07T10:57:51;8.20;99.90
11320;DHT22;5715;48.234;14.320;2024-03-07T11:00:44;8.20;99.90
11320;DHT22;5715;48.234;14.320;2024-03-07T11:03:35;8.30;99.90
11320;DHT22;5715;48.234;14.320;2024-03-07T11:06:25;8.20;99.90
11320;DHT22;5715;48.234;14.320;2024-03-07T11:09:13;8.10;99.90
11320;DHT22;5715;48.234;14.320;2024-03-07T11:12:10;8.10;99.90
11320;DHT22;5715;48.234;14.320;2024-03-07T11:14:59;8.00;99.90
11320;DHT22;5715;48.234;14.320;2024-03-07T11:17:48;8.00;99.90
11320;DHT22;5715;48.234;14.320;2024-03-07T11:20:40;8.10;99.90
11320;DHT22;5715;48.234;14.320;2024-03-07T11:23:32;8.10;99.90
11320;DHT22;5715;48.234;14.320;2024-03-07T11:26:25;8.20;99.90
11320;DHT22;5715;48.234;14.320;2024-03-07T11:32:41;8.20;99.90
11320;DHT22;5715;48.234;14.320;2024-03-07T11:35:32;8.20;99.90
11320;DHT22;5715;48.234;14.320;2024-03-07T11:38:31;8.20;99.90
11320;DHT22;5715;48.234;14.320;2024-03-07T11:41:22;8.20;99.90
11320;DHT22;5715;48.234;14.320;2024-03-07T11:44:10;8.20;99.90
11320;DHT22;5715;48.234;14.320;2024-03-07T11:47:01;8.10;99.90
11320;DHT22;5715;48.234;14.320;2024-03-07T11:49:56;8.00;99.90
11320;DHT22;5715;48.234;14.320;2024-03-07T11:52:46;8.00;99.90
11320;DHT22;5715;48.234;14.320;2024-03-07T11:55:38;8.00;99.90
11320;DHT22;5715;48.234;14.320;2024-03-07T11:58:33;8.00;99.90
11320;DHT22;5715;48.234;14.320;2024-03-07T12:01:22;7.90;99.90
11320;DHT22;5715;48.234;14.320;2024-03-07T12:04:15;7.90;99.90
11320;DHT22;5715;48.234;14.320;2024-03-07T12:07:03;7.90;99.90
11320;DHT22;5715;48.234;14.320;2024-03-07T12:09:53;7.80;99.90
11320;DHT22;5715;48.234;14.320;2024-03-07T12:12:43;7.80;99.90
11320;DHT22;5715;48.234;14.320;2024-03-07T12:15:33;7.70;99.90
11320;DHT22;5715;48.234;14.320;2024-03-07T12:18:23;7.60;99.90
11320;DHT22;5715;48.234;14.320;2024-03-07T12:21:12;7.50;99.90
11320;DHT22;5715;48.234;14.320;2024-03-07T12:24:13;7.50;99.90
11320;DHT22;5715;48.234;14.320;2024-03-07T12:27:10;7.40;99.90
11320;DHT22;5715;48.234;14.320;2024-03-07T12:29:59;7.40;99.90
11320;DHT22;5715;48.234;14.320;2024-03-07T12:33:04;7.30;99.90
11320;DHT22;5715;48.234;14.320;2024-03-07T12:35:53;7.30;99.90
11320;DHT22;5715;48.234;14.320;2024-03-07T12:38:53;7.20;99.90
11320;DHT22;5715;48.234;14.320;2024-03-07T12:41:41;7.20;99.90
11320;DHT22;5715;48.234;14.320;2024-03-07T12:44:39;7.10;99.90
11320;DHT22;5715;48.234;14.320;2024-03-07T12:47:31;7.10;99.90
11320;DHT22;5715;48.234;14.320;2024-03-07T12:50:19;7.10;99.90
11320;DHT22;5715;48.234;14.320;2024-03-07T12:53:08;7.10;99.90
11320;DHT22;5715;48.234;14.320;2024-03-07T12:55:59;7.20;99.90
11320;DHT22;5715;48.234;14.320;2024-03-07T12:58:47;7.50;99.90
11320;DHT22;5715;48.234;14.320;2024-03-07T13:01:38;7.80;99.90
11320;DHT22;5715;48.234;14.320;2024-03-07T13:04:27;8.30;99.90
11320;DHT22;5715;48.234;14.320;2024-03-07T13:07:14;8.60;99.90
11320;DHT22;5715;48.234;14.320;2024-03-07T13:10:03;8.90;99.90
11320;DHT22;5715;48.234;14.320;2024-03-07T13:12:51;9.00;99.90
11320;DHT22;5715;48.234;14.320;2024-03-07T13:15:40;8.90;99.90
11320;DHT22;5715;48.234;14.320;2024-03-07T13:18:29;9.00;99.90
11320;DHT22;5715;48.234;14.320;2024-03-07T13:21:22;9.00;99.90
11320;DHT22;5715;48.234;14.320;2024-03-07T13:24:10;9.00;99.90
11320;DHT22;5715;48.234;14.320;2024-03-07T13:26:57;8.80;99.90
11320;DHT22;5715;48.234;14.320;2024-03-07T13:29:45;8.80;99.90
11320;DHT22;5715;48.234;14.320;2024-03-07T13:32:33;8.90;99.90
11320;DHT22;5715;48.234;14.320;2024-03-07T13:35:22;9.00;99.90
11320;DHT22;5715;48.234;14.320;2024-03-07T13:38:13;9.00;99.90
11320;DHT22;5715;48.234;14.320;2024-03-07T13:41:04;9.10;99.90
11320;DHT22;5715;48.234;14.320;2024-03-07T13:43:52;9.30;99.90
11320;DHT22;5715;48.234;14.320;2024-03-07T13:46:41;9.40;99.90
11320;DHT22;5715;48.234;14.320;2024-03-07T13:49:29;9.40;99.90
11320;DHT22;5715;48.234;14.320;2024-03-07T13:52:16;9.30;99.90
11320;DHT22;5715;48.234;14.320;2024-03-07T13:55:06;9.10;99.90
11320;DHT22;5715;48.234;14.320;2024-03-07T13:57:59;9.10;99.90
11320;DHT22;5715;48.234;14.320;2024-03-07T14:11:38;7.60;99.90
11320;DHT22;5715;48.234;14.320;2024-03-07T14:23:01;6.50;99.90
11320;DHT22;5715;48.234;14.320;2024-03-07T14:29:44;5.80;99.90
11320;DHT22;5715;48.234;14.320;2024-03-07T14:32:38;5.50;99.90
11320;DHT22;5715;48.234;14.320;2024-03-07T14:42:04;5.10;99.90
11320;DHT22;5715;48.234;14.320;2024-03-07T14:44:57;5.00;99.90
11320;DHT22;5715;48.234;14.320;2024-03-07T14:47:48;5.00;99.90
11320;DHT22;5715;48.234;14.320;2024-03-07T14:50:39;5.10;99.90
11320;DHT22;5715;48.234;14.320;2024-03-07T14:53:35;5.10;99.90
11320;DHT22;5715;48.234;14.320;2024-03-07T14:56:23;5.20;99.90
11320;DHT22;5715;48.234;14.320;2024-03-07T14:59:11;5.30;99.90
11320;DHT22;5715;48.234;14.320;2024-03-07T15:02:00;5.40;99.90
11320;DHT22;5715;48.234;14.320;2024-03-07T15:04:50;5.50;99.90
11320;DHT22;5715;48.234;14.320;2024-03-07T15:07:38;5.60;99.90
11320;DHT22;5715;48.234;14.320;2024-03-07T15:10:29;5.70;99.90
11320;DHT22;5715;48.234;14.320;2024-03-07T15:13:19;5.70;99.90
11320;DHT22;5715;48.234;14.320;2024-03-07T15:16:07;5.70;99.90
11320;DHT22;5715;48.234;14.320;2024-03-07T15:19:05;5.70;99.90
11320;DHT22;5715;48.234;14.320;2024-03-07T15:21:56;5.70;99.90
11320;DHT22;5715;48.234;14.320;2024-03-07T15:24:43;5.60;99.90
11320;DHT22;5715;48.234;14.320;2024-03-07T15:27:31;5.60;99.90
11320;DHT22;5715;48.234;14.320;2024-03-07T15:30:19;5.60;99.90
11320;DHT22;5715;48.234;14.320;2024-03-07T15:33:07;5.60;99.90
11320;DHT22;5715;48.234;14.320;2024-03-07T15:35:55;5.50;99.90
11320;DHT22;5715;48.234;14.320;2024-03-07T15:38:44;5.40;99.90
11320;DHT22;5715;48.234;14.320;2024-03-07T15:41:32;5.40;99.90
11320;DHT22;5715;48.234;14.320;2024-03-07T15:44:20;5.40;99.90
11320;DHT22;5715;48.234;14.320;2024-03-07T15:47:08;5.40;99.90
11320;DHT22;5715;48.234;14.320;2024-03-07T15:49:56;5.30;99.90
11320;DHT22;5715;48.234;14.320;2024-03-07T15:52:45;5.30;99.90
11320;DHT22;5715;48.234;14.320;2024-03-07T15:55:34;5.30;99.90
11320;DHT22;5715;48.234;14.320;2024-03-07T15:58:22;5.20;99.90
11320;DHT22;5715;48.234;14.320;2024-03-07T16:01:10;5.20;99.90
11320;DHT22;5715;48.234;14.320;2024-03-07T16:03:58;5.10;99.90
11320;DHT22;5715;48.234;14.320;2024-03-07T16:06:46;5.10;99.90
11320;DHT22;5715;48.234;14.320;2024-03-07T16:09:33;5.00;99.90
11320;DHT22;5715;48.234;14.320;2024-03-07T16:12:21;5.00;99.90
11320;DHT22;5715;48.234;14.320;2024-03-07T16:15:09;5.00;99.90
11320;DHT22;5715;48.234;14.320;2024-03-07T16:17:58;5.00;99.90
11320;DHT22;5715;48.234;14.320;2024-03-07T16:20:46;5.00;99.90
11320;DHT22;5715;48.234;14.320;2024-03-07T16:23:35;5.00;99.90
11320;DHT22;5715;48.234;14.320;2024-03-07T16:26:33;4.90;99.90
11320;DHT22;5715;48.234;14.320;2024-03-07T16:29:22;4.90;99.90
11320;DHT22;5715;48.234;14.320;2024-03-07T16:32:10;4.80;99.90
11320;DHT22;5715;48.234;14.320;2024-03-07T16:34:59;4.80;99.90
11320;DHT22;5715;48.234;14.320;2024-03-07T16:37:48;4.70;99.90
11320;DHT22;5715;48.234;14.320;2024-03-07T16:40:39;4.60;99.90
11320;DHT22;5715;48.234;14.320;2024-03-07T16:43:30;4.50;99.90
11320;DHT22;5715;48.234;14.320;2024-03-07T16:46:17;4.40;99.90
11320;DHT22;5715;48.234;14.320;2024-03-07T16:49:05;4.30;99.90
11320;DHT22;5715;48.234;14.320;2024-03-07T16:51:55;4.10;99.90
11320;DHT22;5715;48.234;14.320;2024-03-07T16:54:43;4.00;99.90
11320;DHT22;5715;48.234;14.320;2024-03-07T16:57:30;3.90;99.90
11320;DHT22;5715;48.234;14.320;2024-03-07T17:00:20;3.80;99.90
11320;DHT22;5715;48.234;14.320;2024-03-07T17:03:15;3.70;99.90
11320;DHT22;5715;48.234;14.320;2024-03-07T17:06:03;3.60;99.90
11320;DHT22;5715;48.234;14.320;2024-03-07T17:08:57;3.50;99.90
11320;DHT22;5715;48.234;14.320;2024-03-07T17:11:45;3.50;99.90
11320;DHT22;5715;48.234;14.320;2024-03-07T17:14:34;3.50;99.90
11320;DHT22;5715;48.234;14.320;2024-03-07T17:17:26;3.40;99.90
11320;DHT22;5715;48.234;14.320;2024-03-07T17:20:25;3.30;99.90
11320;DHT22;5715;48.234;14.320;2024-03-07T17:23:16;3.30;99.90
11320;DHT22;5715;48.234;14.320;2024-03-07T17:26:04;3.20;99.90
11320;DHT22;5715;48.234;14.320;2024-03-07T17:28:52;3.10;99.90
11320;DHT22;5715;48.234;14.320;2024-03-07T17:31:40;3.00;99.90
11320;DHT22;5715;48.234;14.320;2024-03-07T17:34:27;3.00;99.90
11320;DHT22;5715;48.234;14.320;2024-03-07T17:37:17;2.90;99.90
11320;DHT22;5715;48.234;14.320;2024-03-07T17:40:06;2.90;99.90
11320;DHT22;5715;48.234;14.320;2024-03-07T17:43:03;2.80;99.90
11320;DHT22;5715;48.234;14.320;2024-03-07T17:45:51;2.80;99.90
11320;DHT22;5715;48.234;14.320;2024-03-07T17:48:39;2.80;99.90
11320;DHT22;5715;48.234;14.320;2024-03-07T17:51:28;2.80;99.90
11320;DHT22;5715;48.234;14.320;2024-03-07T17:54:16;2.80;99.90
11320;DHT22;5715;48.234;14.320;2024-03-07T17:57:04;2.80;99.90
11320;DHT22;5715;48.234;14.320;2024-03-07T17:59:53;2.80;99.90
11320;DHT22;5715;48.234;14.320;2024-03-07T18:02:40;2.80;99.90
11320;DHT22;5715;48.234;14.320;2024-03-07T18:05:34;2.90;99.90
11320;DHT22;5715;48.234;14.320;2024-03-07T18:08:29;2.90;99.90
11320;DHT22;5715;48.234;14.320;2024-03-07T18:11:31;2.90;99.90
11320;DHT22;5715;48.234;14.320;2024-03-07T18:14:20;2.90;99.90
11320;DHT22;5715;48.234;14.320;2024-03-07T18:17:08;2.90;99.90
11320;DHT22;5715;48.234;14.320;2024-03-07T18:19:56;2.90;99.90
11320;DHT22;5715;48.234;14.320;2024-03-07T18:22:47;2.90;99.90
11320;DHT22;5715;48.234;14.320;2024-03-07T18:25:37;3.00;99.90
11320;DHT22;5715;48.234;14.320;2024-03-07T18:28:25;3.00;99.90
11320;DHT22;5715;48.234;14.320;2024-03-07T18:31:15;3.10;99.90
11320;DHT22;5715;48.234;14.320;2024-03-07T18:34:05;3.10;99.90
11320;DHT22;5715;48.234;14.320;2024-03-07T18:36:53;3.10;99.90
11320;DHT22;5715;48.234;14.320;2024-03-07T18:39:41;3.10;99.90
11320;DHT22;5715;48.234;14.320;2024-03-07T18:42:29;3.10;99.90
11320;DHT22;5715;48.234;14.320;2024-03-07T18:45:20;3.10;99.90